< Typhoon 200018 2000 Season Typhoon 200020 >
Typhoon 200019 (YAGI)
General InformationTrack Information on Google MapsDetailed Wind InformationList of All Images || Disaster Info.ResourceGoogle EarthGE AnimationAtom FeedGeoJSON
Detalied Best Track (Time Zone = UTC)
Year Month Day Hour Lat. Long. Pressure (hPa) Wind (kt) Class Image Chart
2000 10 21 00 20.1 145.9 1008 0 2 Image Chart
2000 10 21 06 20.4 143.8 1006 0 2 Image Chart
2000 10 21 12 20.5 141.7 1004 0 2 Image Chart
2000 10 21 18 20.6 140.2 1002 0 2 Image Chart
2000 10 22 00 21.0 138.9 1000 35 3 Image Chart
2000 10 22 06 21.1 137.6 998 35 3 Image Chart
2000 10 22 12 21.6 135.7 996 40 3 Image Chart
2000 10 22 18 21.9 134.0 992 40 3 Image Chart
2000 10 23 00 22.2 132.5 990 45 3 Image Chart
2000 10 23 06 22.3 131.2 990 45 3 Image Chart
2000 10 23 12 22.8 130.2 985 50 4 Image Chart
2000 10 23 18 22.8 129.2 985 50 4 Image Chart
2000 10 24 00 23.0 128.2 980 55 4 Image Chart
2000 10 24 06 23.4 127.2 975 60 4 Image Chart
2000 10 24 09 23.5 126.7 975 60 4 Image Chart
2000 10 24 12 23.7 126.3 970 65 5 Image Chart
2000 10 24 15 23.9 125.9 970 65 5 Image Chart
2000 10 24 18 24.1 125.5 965 70 5 Image Chart
2000 10 24 21 24.4 125.2 965 70 5 Image Chart
2000 10 25 00 24.7 124.9 965 70 5 Image Chart
2000 10 25 03 24.9 124.6 965 70 5 Image Chart
2000 10 25 06 25.2 124.5 970 65 5 Image Chart
2000 10 25 09 25.4 124.5 970 65 5 Image Chart
2000 10 25 12 25.6 124.5 975 60 4 Image Chart
2000 10 25 15 25.8 124.4 975 60 4 Image Chart
2000 10 25 18 25.9 124.3 980 55 4 Image Chart
2000 10 25 21 26.1 124.8 980 55 4 Image Chart
2000 10 26 00 26.2 125.2 985 50 4 Image Chart
2000 10 26 03 26.5 125.6 985 50 4 Image Chart
2000 10 26 06 26.6 126.0 985 50 4 Image Chart
2000 10 26 09 26.5 126.5 985 50 4 Image Chart
2000 10 26 12 26.5 126.5 990 45 3 Image Chart
2000 10 26 15 26.4 126.5 992 45 3 Image Chart
2000 10 26 18 26.2 126.4 998 40 3 Image Chart
2000 10 26 21 26.0 126.5 1000 35 3 Image Chart
2000 10 27 00 25.8 126.5 1004 0 2 Image Chart
2000 10 27 06 25.4 126.1 1008 0 2 Image Chart
2000 10 27 12 25.2 125.6 1012 0 2 Image Chart
2000 10 27 18 25.0 124.9 1012 0 2 Image Chart
2000 10 28 00 24.9 124.0 1012 0 2 Image Chart
2000 10 28 06 25.2 123.3 1010 0 2 Image Chart
Japan Meteorological Agency Best Track Data | Correction Date : 2001-12-21
< Typhoon 200018 2000 Season Typhoon 200020 >

Help